Time;durP1;ratioP1;P1;durP2;ratioP2;P2;SDS_P1;SDS_P2;PMS_P1;PMS_P2;Temp;Humidity;BMP_temperature;BMP_pressure;BME280_temperature;BME280_humidity;BME280_pressure;Samples;Min_cycle;Max_cycle;Signal;HPM_P1;HPM_P2
2022/12/12 00:01:22;;;;;;;48.55;25.40;;;1.60;99.90;;;;;;5030582;28;20096;-68
2022/12/12 00:03:48;;;;;;;49.10;25.92;;;1.50;99.90;;;;;;5030290;28;20049;-68
2022/12/12 00:06:14;;;;;;;46.05;24.42;;;1.50;99.90;;;;;;5027439;28;20075;-68
2022/12/12 00:08:40;;;;;;;51.83;25.73;;;1.50;99.90;;;;;;5022762;28;20381;-68
2022/12/12 00:11:06;;;;;;;54.80;25.98;;;1.50;99.90;;;;;;5026990;28;20108;-68
2022/12/12 00:13:32;;;;;;;51.55;25.60;;;1.50;99.90;;;;;;5025989;28;20440;-67
2022/12/12 00:15:58;;;;;;;52.33;26.90;;;1.60;99.90;;;;;;5054317;28;20037;-69
2022/12/12 00:18:24;;;;;;;56.88;25.92;;;1.50;99.90;;;;;;5028527;28;20026;-68
2022/12/12 00:20:55;;;;;;;51.58;27.42;;;1.50;99.90;;;;;;5028809;28;20470;-68
2022/12/12 00:23:21;;;;;;;53.47;25.48;;;1.50;99.90;;;;;;5028046;28;20025;-68
2022/12/12 00:25:59;;;;;;;53.72;26.63;;;1.50;99.90;;;;;;5028620;28;20025;-68
2022/12/12 00:28:25;;;;;;;52.65;26.67;;;1.50;99.90;;;;;;5028890;28;20079;-68
2022/12/12 00:30:51;;;;;;;47.35;24.13;;;1.40;99.90;;;;;;5027958;28;20503;-68
2022/12/12 00:33:17;;;;;;;55.92;26.42;;;1.40;99.90;;;;;;5028270;28;20029;-68
2022/12/12 00:35:43;;;;;;;50.53;25.38;;;1.30;99.90;;;;;;5028360;28;20095;-68
2022/12/12 00:38:09;;;;;;;51.90;26.85;;;1.30;99.90;;;;;;5028541;28;20124;-68
2022/12/12 00:40:35;;;;;;;55.67;27.60;;;1.20;99.90;;;;;;5026875;28;20104;-68
2022/12/12 00:43:01;;;;;;;53.75;27.05;;;1.30;99.90;;;;;;5023056;28;20065;-68
2022/12/12 00:45:26;;;;;;;56.15;26.48;;;1.30;99.90;;;;;;5032467;28;20036;-68
2022/12/12 00:47:52;;;;;;;56.72;27.27;;;1.20;99.90;;;;;;5028070;28;20504;-68
2022/12/12 00:50:18;;;;;;;57.85;27.38;;;1.20;99.90;;;;;;5029081;28;20032;-68
2022/12/12 00:52:44;;;;;;;51.92;26.52;;;1.20;99.90;;;;;;5030231;28;20428;-68
2022/12/12 00:55:11;;;;;;;52.85;26.48;;;1.20;99.90;;;;;;5033262;28;20063;-68
2022/12/12 00:57:36;;;;;;;53.38;27.63;;;1.20;99.90;;;;;;5026699;28;20068;-68
2022/12/12 01:00:05;;;;;;;57.00;27.35;;;1.10;99.90;;;;;;5032515;28;20021;-68
2022/12/12 01:02:31;;;;;;;57.55;27.50;;;1.10;99.90;;;;;;5034817;28;20474;-68
2022/12/12 01:04:56;;;;;;;50.70;26.90;;;1.10;99.90;;;;;;5032076;28;20055;-68
2022/12/12 01:07:22;;;;;;;62.25;28.30;;;1.10;99.90;;;;;;5032165;28;20456;-67
2022/12/12 01:09:47;;;;;;;58.63;28.77;;;1.10;99.90;;;;;;5035710;28;20092;-68
2022/12/12 01:12:13;;;;;;;50.17;25.55;;;1.10;99.90;;;;;;5031416;28;20017;-68
2022/12/12 01:14:39;;;;;;;57.00;26.63;;;1.00;99.90;;;;;;5023111;28;20037;-68
2022/12/12 01:17:05;;;;;;;55.42;27.33;;;1.00;99.90;;;;;;5030150;28;20041;-68
2022/12/12 01:19:30;;;;;;;50.08;27.67;;;1.10;99.90;;;;;;5025482;28;20470;-68
2022/12/12 01:21:56;;;;;;;55.38;26.30;;;1.10;99.90;;;;;;5030378;28;20532;-68
2022/12/12 01:24:21;;;;;;;51.53;24.83;;;1.10;99.90;;;;;;5031721;28;20032;-68
2022/12/12 01:26:47;;;;;;;57.83;26.55;;;1.10;99.90;;;;;;5033390;28;20033;-67
2022/12/12 01:29:13;;;;;;;50.85;27.00;;;1.10;99.90;;;;;;5031320;28;20025;-68
2022/12/12 01:31:38;;;;;;;56.95;28.63;;;1.00;99.90;;;;;;5027167;28;20044;-67
2022/12/12 01:34:04;;;;;;;51.47;25.17;;;1.00;99.90;;;;;;5030622;28;20048;-67
2022/12/12 01:36:30;;;;;;;50.30;25.38;;;1.00;99.90;;;;;;5032377;28;20026;-67
2022/12/12 01:38:56;;;;;;;58.00;27.75;;;1.00;99.90;;;;;;5032044;28;20041;-68
2022/12/12 01:41:22;;;;;;;55.97;26.13;;;1.00;99.90;;;;;;5025206;28;20025;-68
2022/12/12 01:43:49;;;;;;;53.17;24.13;;;1.00;99.90;;;;;;5056742;28;20477;-67
2022/12/12 01:46:30;;;;;;;53.20;25.63;;;1.00;99.90;;;;;;5026420;28;20164;-68
2022/12/12 01:49:00;;;;;;;53.42;25.23;;;1.00;99.90;;;;;;5025088;28;20025;-68
2022/12/12 01:51:27;;;;;;;56.53;26.65;;;0.90;99.90;;;;;;5019954;28;20052;-67
2022/12/12 01:54:00;;;;;;;55.67;27.05;;;0.90;99.90;;;;;;5024709;28;20032;-67
2022/12/12 01:56:26;;;;;;;65.20;29.58;;;0.90;99.90;;;;;;5020771;28;20029;-68
2022/12/12 01:58:53;;;;;;;68.68;32.03;;;0.90;99.90;;;;;;5024812;28;20033;-68
2022/12/12 02:01:20;;;;;;;58.78;29.58;;;1.00;99.90;;;;;;5027240;28;20029;-68
2022/12/12 02:03:47;;;;;;;60.30;27.50;;;0.90;99.90;;;;;;5030508;28;20080;-68
2022/12/12 02:06:17;;;;;;;58.15;28.20;;;0.90;99.90;;;;;;5016884;28;20029;-68
2022/12/12 02:08:45;;;;;;;59.45;27.42;;;0.80;99.90;;;;;;5022986;28;20474;-68
2022/12/12 02:11:11;;;;;;;61.05;29.60;;;0.80;99.90;;;;;;5027522;28;20028;-68
2022/12/12 02:13:37;;;;;;;60.55;27.42;;;0.80;99.90;;;;;;5025396;28;20113;-67
2022/12/12 02:16:28;;;;;;;58.10;26.92;;;0.80;99.90;;;;;;5029622;28;20116;-67
2022/12/12 02:19:22;;;;;;;55.53;24.80;;;0.80;99.90;;;;;;5027302;28;20144;-68
2022/12/12 02:21:57;;;;;;;50.25;24.02;;;0.70;99.90;;;;;;5021600;28;20026;-68
2022/12/12 02:24:52;;;;;;;52.55;25.02;;;0.70;99.90;;;;;;5023953;28;20025;-68
2022/12/12 02:27:59;;;;;;;50.53;23.77;;;0.70;99.90;;;;;;5024889;28;20064;-68
2022/12/12 02:31:03;;;;;;;59.35;25.85;;;0.70;99.90;;;;;;5029494;28;20029;-68
2022/12/12 02:33:59;;;;;;;59.97;26.42;;;0.60;99.90;;;;;;5022236;28;20022;-68
2022/12/12 02:36:55;;;;;;;55.17;26.10;;;0.70;99.90;;;;;;5025123;28;20108;-68
2022/12/12 02:39:34;;;;;;;58.42;26.27;;;0.70;99.90;;;;;;5021950;28;20500;-68
2022/12/12 02:42:05;;;;;;;55.90;25.88;;;0.70;99.90;;;;;;5032855;28;20034;-68
2022/12/12 02:44:42;;;;;;;56.80;24.30;;;0.70;99.90;;;;;;5024374;28;20363;-68
2022/12/12 02:47:23;;;;;;;53.67;25.15;;;0.60;99.90;;;;;;5022252;28;20046;-68
2022/12/12 02:49:52;;;;;;;52.58;24.08;;;0.70;99.90;;;;;;5030962;28;20528;-68
2022/12/12 02:52:18;;;;;;;49.55;22.40;;;0.70;99.90;;;;;;5028220;28;20080;-67
2022/12/12 02:54:44;;;;;;;55.95;24.98;;;0.60;99.90;;;;;;5025288;28;20032;-68
2022/12/12 02:57:24;;;;;;;50.78;24.95;;;0.60;99.90;;;;;;5025940;28;20394;-68
2022/12/12 03:00:07;;;;;;;50.63;22.77;;;0.60;99.90;;;;;;5020661;28;20552;-68
2022/12/12 03:07:45;;;;;;;56.85;22.75;;;0.50;99.90;;;;;;5022431;28;20068;-68
2022/12/12 03:09:27;;;;;;;51.33;21.92;;;0.50;99.90;;;;;;5024156;28;20036;-68
2022/12/12 03:12:02;;;;;;;56.88;23.63;;;0.50;99.90;;;;;;5023241;28;20071;-68
2022/12/12 03:14:51;;;;;;;54.28;22.40;;;0.50;99.90;;;;;;5029995;28;20034;-68
2022/12/12 03:17:37;;;;;;;51.00;22.70;;;0.50;99.90;;;;;;5022512;28;20030;-68
2022/12/12 03:20:27;;;;;;;58.50;24.42;;;0.50;99.90;;;;;;5025925;28;20056;-68
2022/12/12 03:23:01;;;;;;;50.85;23.58;;;0.50;99.90;;;;;;5028037;28;20053;-68
2022/12/12 03:25:33;;;;;;;55.95;23.33;;;0.50;99.90;;;;;;5029038;28;20022;-68
2022/12/12 03:28:13;;;;;;;48.35;21.92;;;0.50;99.90;;;;;;5030886;28;20033;-68
2022/12/12 03:30:47;;;;;;;56.80;23.23;;;0.50;99.90;;;;;;5026901;28;20029;-68
2022/12/12 03:33:20;;;;;;;58.63;22.77;;;0.50;99.90;;;;;;5029284;28;20470;-68
2022/12/12 03:35:52;;;;;;;59.70;23.45;;;0.50;99.90;;;;;;5023204;28;20032;-68
2022/12/12 03:38:43;;;;;;;48.35;21.95;;;0.50;99.90;;;;;;5030414;28;20072;-67
2022/12/12 03:41:16;;;;;;;55.38;22.70;;;0.40;99.90;;;;;;5031277;28;20033;-68
2022/12/12 03:43:58;;;;;;;50.10;21.50;;;0.40;99.90;;;;;;5028669;28;20049;-67
2022/12/12 03:46:52;;;;;;;47.30;21.27;;;0.40;99.90;;;;;;5029384;28;20428;-68
2022/12/12 03:49:35;;;;;;;45.13;20.35;;;0.30;99.90;;;;;;5030039;28;20033;-68
2022/12/12 03:52:09;;;;;;;49.00;21.08;;;0.30;99.90;;;;;;5029225;28;20408;-68
2022/12/12 03:54:40;;;;;;;46.40;19.73;;;0.20;99.90;;;;;;5024897;28;20034;-68
2022/12/12 03:57:15;;;;;;;47.92;20.77;;;0.20;99.90;;;;;;5045496;28;20442;-68
2022/12/12 03:59:44;;;;;;;48.67;22.38;;;0.20;99.90;;;;;;5024429;28;20017;-68
2022/12/12 04:02:44;;;;;;;49.83;21.00;;;0.20;99.90;;;;;;5028876;28;20113;-68
2022/12/12 04:05:22;;;;;;;52.17;22.45;;;0.20;99.90;;;;;;5024760;28;20034;-68
2022/12/12 04:07:53;;;;;;;55.25;22.42;;;0.20;99.90;;;;;;5022729;28;20073;-68
2022/12/12 04:13:19;;;;;;;54.22;21.60;;;0.20;99.90;;;;;;5030336;28;20165;-68
2022/12/12 04:16:07;;;;;;;50.50;21.15;;;0.20;99.90;;;;;;5029368;28;20128;-68
2022/12/12 04:18:36;;;;;;;55.97;21.83;;;0.20;99.90;;;;;;5031780;28;20050;-68
2022/12/12 04:24:53;;;;;;;50.78;21.10;;;0.10;99.90;;;;;;5029799;28;20512;-68
2022/12/12 04:27:24;;;;;;;56.58;22.20;;;0.10;99.90;;;;;;5035129;28;20045;-68
2022/12/12 04:30:05;;;;;;;60.38;24.83;;;0.00;99.90;;;;;;5025919;28;20053;-68
2022/12/12 04:32:50;;;;;;;61.17;22.60;;;0.00;99.90;;;;;;5027059;28;20186;-67
2022/12/12 04:35:28;;;;;;;63.42;22.95;;;0.00;99.90;;;;;;5022664;28;20033;-68
2022/12/12 04:38:01;;;;;;;52.90;20.70;;;0.10;99.90;;;;;;5021735;28;20049;-67
2022/12/12 04:40:34;;;;;;;46.80;19.92;;;0.00;99.90;;;;;;5026196;28;20470;-67
2022/12/12 04:43:02;;;;;;;;;;;0.00;99.90;;;;;;5034570;28;20029;-68
2022/12/12 04:45:33;;;;;;;49.25;18.95;;;-0.10;99.90;;;;;;5023331;28;19924;-68
2022/12/12 04:48:01;;;;;;;48.47;21.17;;;0.00;99.90;;;;;;5027512;28;20033;-68
2022/12/12 04:50:30;;;;;;;57.35;20.77;;;-0.10;99.90;;;;;;5020702;28;20025;-67
2022/12/12 04:53:00;;;;;;;51.28;21.30;;;-0.20;99.90;;;;;;5024842;28;20080;-68
2022/12/12 04:55:33;;;;;;;51.42;20.98;;;-0.20;99.90;;;;;;5034725;28;20409;-68
2022/12/12 04:57:58;;;;;;;44.45;19.33;;;-0.20;99.90;;;;;;5024150;28;20027;-68
2022/12/12 05:00:29;;;;;;;55.30;21.90;;;-0.20;99.90;;;;;;5025618;28;20097;-68
2022/12/12 05:03:37;;;;;;;52.55;21.92;;;-0.20;99.90;;;;;;5028103;28;20589;-67
2022/12/12 05:06:10;;;;;;;47.20;20.95;;;-0.20;99.90;;;;;;5033696;28;20464;-68
2022/12/12 05:08:38;;;;;;;;;;;-0.20;99.90;;;;;;5021484;28;20506;-68
2022/12/12 05:11:05;;;;;;;50.88;20.73;;;-0.30;99.90;;;;;;5025762;28;19909;-68
2022/12/12 05:13:34;;;;;;;51.47;21.00;;;-0.30;99.90;;;;;;5031147;28;20072;-67
2022/12/12 05:16:02;;;;;;;48.90;21.13;;;-0.40;99.90;;;;;;5033927;28;20029;-68
2022/12/12 05:18:29;;;;;;;59.55;22.00;;;-0.40;99.90;;;;;;5033198;28;20021;-68
2022/12/12 05:20:55;;;;;;;48.60;20.52;;;-0.40;99.90;;;;;;5021589;28;20037;-68
2022/12/12 05:23:20;;;;;;;45.83;18.73;;;-0.40;99.90;;;;;;5025489;28;20033;-67
2022/12/12 05:25:46;;;;;;;49.60;21.63;;;-0.40;99.90;;;;;;5020288;28;20529;-68
2022/12/12 05:28:11;;;;;;;49.53;19.77;;;-0.40;99.90;;;;;;5023644;28;20037;-67
2022/12/12 05:30:37;;;;;;;50.45;20.85;;;-0.40;99.90;;;;;;5032482;28;20013;-67
2022/12/12 05:33:03;;;;;;;50.58;20.38;;;-0.40;99.90;;;;;;5028405;28;20033;-68
2022/12/12 05:35:28;;;;;;;49.30;21.08;;;-0.40;99.90;;;;;;5020744;28;20018;-67
2022/12/12 05:37:54;;;;;;;53.70;21.60;;;-0.30;99.90;;;;;;5023390;28;20150;-68
2022/12/12 05:40:20;;;;;;;50.55;19.52;;;-0.40;99.90;;;;;;5030872;28;20040;-68
2022/12/12 05:42:47;;;;;;;49.40;20.58;;;-0.40;99.90;;;;;;5026678;28;20083;-68
2022/12/12 05:45:13;;;;;;;49.28;20.15;;;-0.50;99.90;;;;;;5018004;28;20436;-68
2022/12/12 05:47:39;;;;;;;45.40;19.42;;;-0.50;99.90;;;;;;5031638;28;20481;-68
2022/12/12 05:50:06;;;;;;;48.08;18.80;;;-0.50;99.90;;;;;;5034454;28;20029;-68
2022/12/12 05:52:32;;;;;;;43.70;18.35;;;-0.40;99.90;;;;;;5023363;28;20029;-69
2022/12/12 05:54:58;;;;;;;47.28;18.35;;;-0.40;99.90;;;;;;5023943;28;20022;-68
2022/12/12 05:57:23;;;;;;;50.30;19.58;;;-0.40;99.90;;;;;;5027971;28;20060;-68
2022/12/12 05:59:49;;;;;;;43.83;18.85;;;-0.30;99.90;;;;;;5030367;28;20474;-69
2022/12/12 06:02:15;;;;;;;44.30;18.63;;;-0.30;99.90;;;;;;5020547;28;20033;-68
2022/12/12 06:04:41;;;;;;;48.60;19.48;;;-0.40;99.90;;;;;;5022083;28;20356;-68
2022/12/12 06:07:07;;;;;;;47.63;20.00;;;-0.30;99.90;;;;;;5025758;28;20048;-68
2022/12/12 06:09:32;;;;;;;45.45;17.90;;;-0.40;99.90;;;;;;5022767;28;20492;-68
2022/12/12 06:11:58;;;;;;;51.03;18.85;;;-0.40;99.90;;;;;;5031870;28;20022;-68
2022/12/12 06:14:25;;;;;;;45.05;17.80;;;-0.40;99.90;;;;;;5020451;28;20053;-68
2022/12/12 06:16:51;;;;;;;45.20;17.15;;;-0.30;99.90;;;;;;5024216;28;20029;-68
2022/12/12 06:19:18;;;;;;;50.40;18.35;;;-0.40;99.90;;;;;;5031874;28;20386;-68
2022/12/12 06:21:44;;;;;;;50.17;17.02;;;-0.40;99.90;;;;;;5023617;28;20018;-69
2022/12/12 06:24:10;;;;;;;51.97;18.65;;;-0.40;99.90;;;;;;5025287;28;20041;-68
2022/12/12 06:26:36;;;;;;;50.92;20.40;;;-0.40;99.90;;;;;;5026310;28;20071;-68
2022/12/12 06:29:01;;;;;;;53.22;20.83;;;-0.40;99.90;;;;;;5023065;28;20026;-68
2022/12/12 06:31:27;;;;;;;45.03;19.58;;;-0.50;99.90;;;;;;5023278;28;20022;-68
2022/12/12 06:33:53;;;;;;;53.55;22.33;;;-0.50;99.90;;;;;;5024019;28;20026;-67
2022/12/12 06:36:23;;;;;;;52.05;22.58;;;-0.50;99.90;;;;;;5024958;28;20033;-68
2022/12/12 06:38:57;;;;;;;53.42;22.35;;;-0.50;99.90;;;;;;5026701;28;20017;-68
2022/12/12 06:41:24;;;;;;;51.80;22.55;;;-0.50;99.90;;;;;;5020526;28;20174;-68
2022/12/12 06:43:50;;;;;;;56.60;21.85;;;-0.50;99.90;;;;;;5023131;28;20026;-68
2022/12/12 06:46:20;;;;;;;52.05;20.42;;;-0.50;99.90;;;;;;5017223;28;20099;-68
2022/12/12 06:48:46;;;;;;;52.75;19.92;;;-0.50;99.90;;;;;;5027991;28;20031;-68
2022/12/12 06:51:14;;;;;;;51.40;19.85;;;-0.60;99.90;;;;;;5029428;28;20061;-68
2022/12/12 06:53:40;;;;;;;59.90;21.45;;;-0.60;99.90;;;;;;5027068;28;20080;-68
2022/12/12 06:56:17;;;;;;;53.38;20.60;;;-0.60;99.90;;;;;;5030217;28;20442;-68
2022/12/12 06:58:43;;;;;;;49.10;19.83;;;-0.60;99.90;;;;;;5026873;28;20091;-68
2022/12/12 07:01:12;;;;;;;56.13;22.27;;;-0.70;99.90;;;;;;5029926;28;20026;-68
2022/12/12 07:03:38;;;;;;;50.33;19.85;;;-0.70;99.90;;;;;;5025483;28;20064;-68
2022/12/12 07:06:04;;;;;;;52.28;20.27;;;-0.70;99.90;;;;;;5031736;28;20063;-68
2022/12/12 07:08:29;;;;;;;53.35;20.25;;;-0.70;99.90;;;;;;5036089;28;20044;-68
2022/12/12 07:11:01;;;;;;;56.95;20.25;;;-0.60;99.90;;;;;;5028030;28;20389;-68
2022/12/12 07:13:26;;;;;;;54.05;20.30;;;-0.60;99.90;;;;;;5026856;28;20116;-68
2022/12/12 07:15:54;;;;;;;51.90;19.50;;;-0.60;99.90;;;;;;5027644;28;20431;-68
2022/12/12 07:18:20;;;;;;;47.20;17.83;;;-0.70;99.90;;;;;;5022915;28;20619;-68
2022/12/12 07:20:46;;;;;;;46.45;16.60;;;-0.70;99.90;;;;;;5023377;28;20026;-68
2022/12/12 07:23:12;;;;;;;49.80;18.13;;;-0.70;99.90;;;;;;5028305;28;20034;-68
2022/12/12 07:25:43;;;;;;;53.58;19.92;;;-0.70;99.90;;;;;;5033129;28;20029;-68
2022/12/12 07:28:10;;;;;;;53.08;19.17;;;-0.80;99.90;;;;;;5028345;28;20040;-68
2022/12/12 07:30:44;;;;;;;52.03;19.42;;;-0.80;99.90;;;;;;5025868;28;20033;-68
2022/12/12 07:33:12;;;;;;;53.05;20.70;;;-0.90;99.90;;;;;;5031437;28;20025;-68
2022/12/12 07:35:38;;;;;;;52.35;18.98;;;-0.90;99.90;;;;;;5023196;28;20018;-68
2022/12/12 07:38:04;;;;;;;53.05;20.25;;;-0.90;99.90;;;;;;5030308;28;20032;-68
2022/12/12 07:40:31;;;;;;;50.63;20.08;;;-0.90;99.90;;;;;;5019295;28;20063;-68
2022/12/12 07:42:58;;;;;;;53.50;21.02;;;-0.90;99.90;;;;;;5024769;28;20025;-68
2022/12/12 07:45:24;;;;;;;44.60;17.92;;;-1.00;99.90;;;;;;5021144;28;20100;-68
2022/12/12 07:47:50;;;;;;;66.20;20.23;;;-1.00;99.90;;;;;;5025382;28;20117;-68
2022/12/12 07:50:16;;;;;;;53.72;18.55;;;-1.00;99.90;;;;;;5027406;28;20028;-68
2022/12/12 07:52:42;;;;;;;56.85;21.27;;;-1.10;99.90;;;;;;5020854;28;20025;-68
2022/12/12 07:55:08;;;;;;;52.42;19.23;;;-1.10;99.90;;;;;;5020891;28;20020;-67
2022/12/12 07:57:34;;;;;;;47.97;18.63;;;-1.10;99.90;;;;;;5024594;28;20026;-67
2022/12/12 08:00:00;;;;;;;48.35;19.00;;;-1.10;99.90;;;;;;5029819;28;20025;-68
2022/12/12 08:02:25;;;;;;;47.22;18.67;;;-1.00;99.90;;;;;;5029585;28;20438;-68
2022/12/12 08:04:51;;;;;;;47.97;18.55;;;-1.10;99.90;;;;;;5032611;28;20048;-68
2022/12/12 08:07:16;;;;;;;43.53;16.75;;;-1.10;99.90;;;;;;5022357;28;20038;-68
2022/12/12 08:09:42;;;;;;;45.15;17.23;;;-1.00;99.90;;;;;;5021558;28;20441;-68
2022/12/12 08:12:07;;;;;;;46.22;18.13;;;-1.00;99.90;;;;;;5029577;28;20040;-67
2022/12/12 08:14:33;;;;;;;47.35;17.85;;;-1.10;99.90;;;;;;5019970;28;20030;-68
2022/12/12 08:16:59;;;;;;;48.85;17.60;;;-1.00;99.90;;;;;;5030824;28;20021;-68
2022/12/12 08:19:24;;;;;;;45.35;17.85;;;-1.10;99.90;;;;;;5023005;28;20076;-68
2022/12/12 08:21:50;;;;;;;49.15;17.20;;;-1.10;99.90;;;;;;5029820;28;20018;-68
2022/12/12 08:24:16;;;;;;;43.08;17.33;;;-1.10;99.90;;;;;;5028325;28;20512;-67
2022/12/12 08:26:43;;;;;;;43.45;17.65;;;-1.00;99.90;;;;;;5019485;28;20563;-68
2022/12/12 08:29:10;;;;;;;46.83;17.42;;;-1.00;99.90;;;;;;5025728;28;20022;-68
2022/12/12 08:31:38;;;;;;;49.95;15.95;;;-0.90;99.90;;;;;;5026801;28;20034;-68
2022/12/12 08:34:04;;;;;;;46.47;17.23;;;-0.90;99.90;;;;;;5023113;28;20021;-68
2022/12/12 08:36:31;;;;;;;54.08;18.48;;;-0.90;99.90;;;;;;5034162;28;20069;-68
2022/12/12 08:39:01;;;;;;;44.25;17.55;;;-0.90;99.90;;;;;;5032371;28;20108;-68
2022/12/12 08:41:26;;;;;;;49.97;17.63;;;-0.90;99.90;;;;;;5023412;28;20018;-68
2022/12/12 08:43:52;;;;;;;44.38;17.00;;;-0.90;99.90;;;;;;5032936;28;20036;-68
2022/12/12 08:46:19;;;;;;;39.50;17.17;;;-0.90;99.90;;;;;;5026708;28;20029;-68
2022/12/12 08:48:46;;;;;;;51.03;17.55;;;-0.80;99.90;;;;;;5025095;28;20030;-68
2022/12/12 08:51:12;;;;;;;52.80;18.77;;;-0.90;99.90;;;;;;5022109;28;20026;-68
2022/12/12 08:53:38;;;;;;;53.13;18.70;;;-0.80;99.90;;;;;;5052764;28;20029;-68
2022/12/12 08:56:04;;;;;;;41.78;17.00;;;-0.80;99.90;;;;;;5033498;28;20036;-67
2022/12/12 08:58:29;;;;;;;53.20;19.00;;;-0.70;99.90;;;;;;5020691;28;20053;-67
2022/12/12 09:00:55;;;;;;;47.03;17.40;;;-0.70;99.90;;;;;;5029090;28;20089;-68
2022/12/12 09:03:21;;;;;;;51.08;18.92;;;-0.70;99.90;;;;;;5023458;28;20493;-67
2022/12/12 09:05:47;;;;;;;52.25;18.95;;;-0.60;99.90;;;;;;5022053;28;20071;-69
2022/12/12 09:08:13;;;;;;;47.58;17.85;;;-0.60;99.90;;;;;;5007289;28;20593;-68
2022/12/12 09:10:40;;;;;;;47.38;18.00;;;-0.60;99.90;;;;;;5024102;28;20026;-68
2022/12/12 09:13:06;;;;;;;41.92;18.75;;;-0.60;99.90;;;;;;5026776;28;20025;-67
2022/12/12 09:15:36;;;;;;;51.47;21.58;;;-0.60;99.90;;;;;;5027919;28;20037;-67
2022/12/12 09:18:02;;;;;;;42.50;16.85;;;-0.60;99.90;;;;;;5026729;28;20029;-67
2022/12/12 09:20:28;;;;;;;45.88;16.15;;;-0.60;99.90;;;;;;5021271;28;20095;-68
2022/12/12 09:22:53;;;;;;;46.60;17.50;;;-0.60;99.90;;;;;;5027103;28;20470;-67
2022/12/12 09:25:20;;;;;;;43.15;17.00;;;-0.60;99.90;;;;;;5026677;28;20529;-68
2022/12/12 09:27:46;;;;;;;48.33;17.38;;;-0.60;99.90;;;;;;5022319;28;20033;-67
2022/12/12 09:30:12;;;;;;;47.67;16.65;;;-0.50;99.90;;;;;;5027131;28;20488;-68
2022/12/12 09:32:38;;;;;;;50.40;18.17;;;-0.40;99.90;;;;;;5023444;28;20350;-67
2022/12/12 09:35:04;;;;;;;43.53;18.35;;;-0.40;99.90;;;;;;5025681;28;20021;-68
2022/12/12 09:37:30;;;;;;;51.05;19.27;;;-0.30;99.90;;;;;;5023676;28;20017;-68
2022/12/12 09:39:56;;;;;;;43.58;18.95;;;-0.30;99.90;;;;;;5025390;28;20037;-68
2022/12/12 09:42:31;;;;;;;43.05;18.05;;;-0.30;99.90;;;;;;5021738;28;20417;-68
2022/12/12 09:45:01;;;;;;;52.75;20.50;;;-0.30;99.90;;;;;;5027259;28;20029;-68
2022/12/12 09:47:49;;;;;;;43.83;17.02;;;-0.30;99.90;;;;;;5021772;28;20046;-68
2022/12/12 09:50:29;;;;;;;46.67;17.77;;;-0.20;99.90;;;;;;5024235;28;20557;-67
2022/12/12 09:52:59;;;;;;;46.10;16.60;;;-0.20;99.90;;;;;;5020620;28;20032;-68
2022/12/12 09:55:49;;;;;;;41.40;16.60;;;-0.10;99.90;;;;;;5025085;28;20053;-67
2022/12/12 09:58:23;;;;;;;40.83;15.60;;;0.00;99.90;;;;;;5023235;28;20033;-67
2022/12/12 10:01:16;;;;;;;43.05;16.27;;;0.10;99.90;;;;;;5022848;28;20025;-67
2022/12/12 10:04:00;;;;;;;;;;;0.20;99.90;;;;;;5025538;28;20109;-67
2022/12/12 10:06:36;;;;;;;37.63;14.98;;;0.20;99.90;;;;;;5025852;28;20350;-67
2022/12/12 10:09:14;;;;;;;40.85;16.30;;;0.40;99.90;;;;;;5024813;28;20025;-67
2022/12/12 10:11:51;;;;;;;43.45;16.42;;;0.20;99.90;;;;;;5026263;28;20603;-67
2022/12/12 10:14:46;;;;;;;50.10;17.85;;;0.40;99.90;;;;;;5020461;28;20013;-67
2022/12/12 10:17:18;;;;;;;51.65;16.75;;;0.40;99.90;;;;;;5023946;28;20038;-67
2022/12/12 10:19:53;;;;;;;41.30;16.02;;;0.50;99.90;;;;;;5025915;28;20029;-67
2022/12/12 10:22:41;;;;;;;38.75;15.70;;;0.50;99.90;;;;;;5022084;28;20025;-67
2022/12/12 10:25:36;;;;;;;36.45;14.60;;;0.60;99.90;;;;;;5023454;28;20033;-67
2022/12/12 10:28:11;;;;;;;35.55;14.38;;;0.80;99.90;;;;;;5022672;28;20103;-67
2022/12/12 10:30:54;;;;;;;33.38;14.55;;;0.80;99.90;;;;;;5024162;28;20042;-68
2022/12/12 10:33:29;;;;;;;38.80;15.80;;;0.80;99.90;;;;;;5023077;28;20030;-67
2022/12/12 10:36:04;;;;;;;38.70;14.85;;;0.80;99.90;;;;;;5025371;28;20036;-67
2022/12/12 10:39:03;;;;;;;31.38;13.05;;;0.80;99.90;;;;;;5022784;28;20629;-67
2022/12/12 10:41:32;;;;;;;34.47;14.63;;;0.80;99.90;;;;;;5026528;28;20038;-68
2022/12/12 10:44:16;;;;;;;33.17;14.45;;;0.80;99.90;;;;;;5027246;28;20030;-68
2022/12/12 10:46:54;;;;;;;33.50;14.02;;;1.00;99.90;;;;;;5021421;28;20122;-68
2022/12/12 10:49:22;;;;;;;31.17;13.10;;;1.00;99.90;;;;;;5023700;28;20021;-68
2022/12/12 10:51:50;;;;;;;24.70;12.20;;;1.00;99.90;;;;;;5020038;28;21958;-68
2022/12/12 10:54:20;;;;;;;30.30;13.25;;;1.00;99.90;;;;;;5025399;28;20033;-68
2022/12/12 10:57:23;;;;;;;27.50;12.10;;;1.10;99.90;;;;;;5026332;28;20037;-69
2022/12/12 10:59:51;;;;;;;29.83;13.30;;;1.10;99.90;;;;;;5023083;28;20025;-67
2022/12/12 11:02:37;;;;;;;29.13;12.50;;;1.00;99.90;;;;;;5025946;28;20022;-69
2022/12/12 11:05:09;;;;;;;26.02;12.18;;;1.10;99.90;;;;;;5025395;28;20359;-68
2022/12/12 11:07:45;;;;;;;28.23;11.90;;;1.20;99.90;;;;;;5027370;28;20041;-68
2022/12/12 11:10:19;;;;;;;28.35;12.35;;;1.30;99.90;;;;;;5024451;28;20105;-68
2022/12/12 11:12:45;;;;;;;25.70;11.45;;;1.30;99.90;;;;;;5023001;28;20406;-68
2022/12/12 11:15:18;;;;;;;27.00;11.55;;;1.30;99.90;;;;;;5025362;28;20036;-68
2022/12/12 11:17:44;;;;;;;27.00;11.50;;;1.30;99.90;;;;;;5024987;28;20121;-69
2022/12/12 11:20:17;;;;;;;24.63;12.05;;;1.40;99.90;;;;;;5025310;28;20136;-69
2022/12/12 11:22:43;;;;;;;24.08;11.35;;;1.40;99.90;;;;;;5023614;28;20067;-68
2022/12/12 11:25:28;;;;;;;28.58;13.10;;;1.50;99.90;;;;;;5019721;28;20033;-68
2022/12/12 11:27:58;;;;;;;24.85;11.18;;;1.50;99.90;;;;;;5023569;28;20041;-68
2022/12/12 11:30:36;;;;;;;26.17;12.30;;;1.60;99.90;;;;;;5021135;28;20032;-68
2022/12/12 11:33:07;;;;;;;32.28;17.20;;;1.70;99.90;;;;;;5024569;28;20029;-68
2022/12/12 11:35:39;;;;;;;30.90;16.00;;;1.60;99.90;;;;;;5025902;28;20049;-69
2022/12/12 11:38:17;;;;;;;35.33;17.88;;;1.70;99.90;;;;;;5026853;28;20106;-69
2022/12/12 11:40:44;;;;;;;41.25;20.67;;;1.60;99.90;;;;;;5030173;28;20025;-67
2022/12/12 11:43:13;;;;;;;41.17;22.05;;;1.70;99.90;;;;;;5030040;28;20018;-69
2022/12/12 11:45:39;;;;;;;37.35;20.33;;;1.70;99.90;;;;;;5029503;28;20029;-68
2022/12/12 11:48:58;;;;;;;39.13;20.45;;;1.80;99.90;;;;;;5024450;28;20532;-68
2022/12/12 11:51:43;;;;;;;29.77;16.02;;;1.80;99.90;;;;;;5014545;28;20569;-69
2022/12/12 11:54:17;;;;;;;28.27;15.43;;;1.80;99.90;;;;;;5028779;28;20026;-69
2022/12/12 11:56:47;;;;;;;31.23;14.75;;;1.80;99.90;;;;;;5025480;28;20021;-68
2022/12/12 11:59:20;;;;;;;31.13;16.20;;;1.80;99.90;;;;;;5030372;28;20026;-68
2022/12/12 12:01:54;;;;;;;32.13;15.88;;;1.80;99.90;;;;;;5020364;28;20052;-68
2022/12/12 12:04:34;;;;;;;24.70;12.15;;;1.90;99.90;;;;;;5025420;28;20029;-68
2022/12/12 12:07:38;;;;;;;27.20;11.35;;;2.00;99.90;;;;;;5017504;28;20429;-68
2022/12/12 12:10:28;;;;;;;24.63;11.38;;;1.90;99.90;;;;;;5027707;28;20013;-67
2022/12/12 12:13:21;;;;;;;21.02;10.27;;;2.00;99.90;;;;;;5025930;28;20030;-67
2022/12/12 12:16:46;;;;;;;28.33;13.45;;;2.10;99.90;;;;;;5025571;28;20029;-66
2022/12/12 12:19:26;;;;;;;31.80;13.90;;;2.10;99.90;;;;;;4981484;28;20057;-67
2022/12/12 12:21:52;;;;;;;28.15;11.65;;;2.20;99.90;;;;;;5026147;28;20017;-68
2022/12/12 12:24:44;;;;;;;25.80;11.80;;;2.20;99.90;;;;;;5027885;28;20370;-68
2022/12/12 12:27:12;;;;;;;21.73;11.27;;;2.20;99.90;;;;;;5024943;28;20033;-68
2022/12/12 12:30:12;;;;;;;21.80;11.18;;;2.20;99.90;;;;;;5026908;28;20119;-68
2022/12/12 12:32:49;;;;;;;22.17;11.07;;;2.20;99.90;;;;;;5024417;28;20448;-68
2022/12/12 12:35:22;;;;;;;21.35;9.90;;;2.20;99.90;;;;;;5026453;28;20021;-67
2022/12/12 12:38:03;;;;;;;23.80;10.63;;;2.30;99.90;;;;;;5059026;28;20057;-68
2022/12/12 12:40:53;;;;;;;25.85;11.63;;;2.30;99.90;;;;;;5027546;28;20454;-67
2022/12/12 12:43:34;;;;;;;21.75;10.75;;;2.30;99.90;;;;;;5024198;28;20029;-68
2022/12/12 12:46:19;;;;;;;29.60;12.48;;;2.30;99.90;;;;;;5025532;28;20047;-68
2022/12/12 12:48:49;;;;;;;22.30;10.90;;;2.30;99.90;;;;;;5023742;28;20041;-68
2022/12/12 12:51:29;;;;;;;23.85;11.35;;;2.30;99.90;;;;;;5026399;28;20045;-68
2022/12/12 12:54:04;;;;;;;19.42;9.73;;;2.30;99.90;;;;;;5026562;28;20040;-68
2022/12/12 12:56:37;;;;;;;17.88;9.55;;;2.40;99.90;;;;;;5027109;28;20033;-68
2022/12/12 12:59:16;;;;;;;19.92;9.60;;;2.30;99.90;;;;;;5019146;28;20024;-67
2022/12/12 13:01:49;;;;;;;20.60;10.40;;;2.30;99.90;;;;;;5027614;28;20025;-68
2022/12/12 13:04:52;;;;;;;21.13;10.65;;;2.30;99.90;;;;;;5024017;28;20029;-68
2022/12/12 13:07:50;;;;;;;21.27;9.90;;;2.40;99.90;;;;;;5027245;28;20057;-68
2022/12/12 13:10:22;;;;;;;18.40;9.80;;;2.50;99.90;;;;;;5015921;28;20033;-68